createdAt,value
2019-01-26T00:00:21.570Z,50.43
2019-01-26T00:02:50.106Z,50.60
2019-01-26T00:05:18.709Z,43.50
2019-01-26T00:07:47.613Z,50.48
2019-01-26T00:10:16.428Z,47.85
2019-01-26T00:12:44.982Z,49.10
2019-01-26T00:15:13.554Z,48.60
2019-01-26T00:17:42.134Z,55.12
2019-01-26T00:20:10.718Z,51.13
2019-01-26T00:22:39.294Z,53.52
2019-01-26T00:25:07.890Z,49.83
2019-01-26T00:27:36.819Z,49.77
2019-01-26T00:30:06.278Z,45.48
2019-01-26T00:32:34.871Z,48.95
2019-01-26T00:35:03.966Z,46.98
2019-01-26T00:37:32.885Z,51.48
2019-01-26T00:40:01.792Z,41.85
2019-01-26T00:42:30.874Z,46.92
2019-01-26T00:44:59.426Z,45.80
2019-01-26T00:47:28.318Z,48.90
2019-01-26T00:49:57.221Z,55.88
2019-01-26T00:52:25.777Z,49.35
2019-01-26T00:54:54.302Z,47.45
2019-01-26T00:57:22.846Z,44.77
2019-01-26T00:59:51.446Z,45.65
2019-01-26T01:02:20.266Z,46.23
2019-01-26T01:04:49.102Z,48.08
2019-01-26T01:07:18.093Z,48.55
2019-01-26T01:09:47.074Z,41.37
2019-01-26T01:12:15.710Z,46.33
2019-01-26T01:14:44.923Z,43.45
2019-01-26T01:17:13.430Z,39.63
2019-01-26T01:19:42.051Z,44.70
2019-01-26T01:22:10.878Z,49.23
2019-01-26T01:24:39.418Z,41.08
2019-01-26T01:27:08.010Z,40.50
2019-01-26T01:29:36.586Z,37.23
2019-01-26T01:32:05.267Z,45.05
2019-01-26T01:34:34.469Z,36.85
2019-01-26T01:37:03.323Z,39.60
2019-01-26T01:39:31.914Z,35.83
2019-01-26T01:42:00.886Z,37.03
2019-01-26T01:44:29.671Z,38.20
2019-01-26T01:46:58.216Z,37.80
2019-01-26T01:49:26.960Z,31.70
2019-01-26T01:51:55.506Z,42.08
2019-01-26T01:54:24.622Z,36.95
2019-01-26T01:56:54.543Z,36.60
2019-01-26T01:59:23.337Z,35.65
2019-01-26T02:01:52.838Z,41.20
2019-01-26T02:04:21.619Z,31.73
2019-01-26T02:06:50.229Z,30.88
2019-01-26T02:09:18.853Z,37.58
2019-01-26T02:11:48.096Z,31.25
2019-01-26T02:14:17.199Z,37.53
2019-01-26T02:16:50.056Z,33.85
2019-01-26T02:19:16.261Z,31.45
2019-01-26T02:21:45.086Z,35.95
2019-01-26T02:24:13.639Z,35.45
2019-01-26T02:26:42.226Z,30.80
2019-01-26T02:29:11.050Z,34.27
2019-01-26T02:31:39.860Z,31.65
2019-01-26T02:34:08.499Z,29.87
2019-01-26T02:36:37.306Z,30.57
2019-01-26T02:39:07.359Z,29.82
2019-01-26T02:41:36.322Z,32.10
2019-01-26T02:44:04.879Z,27.15
2019-01-26T02:46:33.701Z,30.70
2019-01-26T02:49:02.896Z,28.45
2019-01-26T02:51:31.428Z,29.00
2019-01-26T02:54:00.459Z,30.32
2019-01-26T02:56:35.157Z,29.37
2019-01-26T02:59:03.752Z,29.35
2019-01-26T03:01:32.599Z,24.43
2019-01-26T03:04:01.467Z,31.12
2019-01-26T03:06:30.246Z,30.55
2019-01-26T03:08:58.795Z,25.25
2019-01-26T03:11:27.359Z,31.82
2019-01-26T03:13:55.946Z,29.05
2019-01-26T03:16:24.919Z,26.87
2019-01-26T03:18:53.883Z,28.70
2019-01-26T03:21:22.984Z,26.42
2019-01-26T03:23:51.975Z,26.70
2019-01-26T03:26:20.500Z,24.52
2019-01-26T03:28:49.130Z,26.80
2019-01-26T03:31:17.676Z,28.05
2019-01-26T03:33:46.285Z,28.90
2019-01-26T03:36:15.507Z,25.55
2019-01-26T03:38:44.058Z,30.05
2019-01-26T03:41:12.886Z,26.12
2019-01-26T03:43:41.411Z,24.30
2019-01-26T03:46:10.007Z,27.35
2019-01-26T03:48:38.936Z,26.00
2019-01-26T03:51:07.478Z,28.60
2019-01-26T03:53:36.070Z,26.10
2019-01-26T03:56:04.996Z,27.07
2019-01-26T03:58:33.542Z,24.98
2019-01-26T04:01:02.375Z,25.72
2019-01-26T04:03:30.901Z,24.77
2019-01-26T04:05:59.819Z,27.00
2019-01-26T04:08:28.762Z,26.82
2019-01-26T04:10:57.382Z,27.20
2019-01-26T04:13:25.955Z,24.85
2019-01-26T04:15:54.546Z,28.50
2019-01-26T04:18:23.043Z,26.62
2019-01-26T04:20:51.611Z,23.30
2019-01-26T04:23:20.190Z,21.48
2019-01-26T04:25:48.788Z,21.37
2019-01-26T04:28:17.670Z,20.00
2019-01-26T04:30:46.256Z,16.70
2019-01-26T04:33:14.831Z,16.67
2019-01-26T04:35:43.422Z,15.90
2019-01-26T04:38:12.038Z,18.02
2019-01-26T04:40:40.600Z,18.48
2019-01-26T04:43:09.167Z,18.27
2019-01-26T04:45:38.070Z,17.82
2019-01-26T04:48:07.267Z,17.95
2019-01-26T04:50:35.784Z,16.20
2019-01-26T04:53:04.323Z,17.10
2019-01-26T04:55:33.318Z,18.37
2019-01-26T04:58:01.891Z,20.27
2019-01-26T05:00:30.479Z,15.70
2019-01-26T05:02:59.083Z,18.42
2019-01-26T05:05:27.638Z,16.67
2019-01-26T05:07:56.496Z,16.82
2019-01-26T05:10:25.019Z,14.03
2019-01-26T05:12:54.507Z,15.50
2019-01-26T05:15:23.106Z,16.80
2019-01-26T05:17:51.709Z,16.57
2019-01-26T05:20:22.296Z,16.42
2019-01-26T05:22:50.838Z,18.90
2019-01-26T05:25:19.386Z,18.02
2019-01-26T05:27:47.984Z,19.92
2019-01-26T05:30:19.193Z,20.12
2019-01-26T05:32:48.135Z,18.95
2019-01-26T05:35:17.091Z,14.40
2019-01-26T05:37:45.719Z,18.40
2019-01-26T05:40:15.438Z,15.75
2019-01-26T05:42:44.286Z,18.12
2019-01-26T05:45:16.762Z,19.27
2019-01-26T05:47:49.027Z,16.25
2019-01-26T05:50:20.878Z,22.02
2019-01-26T05:52:49.742Z,17.87
2019-01-26T05:55:18.594Z,20.27
2019-01-26T05:57:47.166Z,20.52
2019-01-26T06:00:19.970Z,21.73
2019-01-26T06:02:48.494Z,20.30
2019-01-26T06:05:17.266Z,20.12
2019-01-26T06:07:46.471Z,22.22
2019-01-26T06:10:15.249Z,21.60
2019-01-26T06:12:43.786Z,20.43
2019-01-26T06:15:12.694Z,20.23
2019-01-26T06:17:41.270Z,23.75
2019-01-26T06:20:10.465Z,18.80
2019-01-26T06:22:39.046Z,22.20
2019-01-26T06:25:09.160Z,20.32
2019-01-26T06:27:38.403Z,17.30
2019-01-26T06:30:10.614Z,22.58
2019-01-26T06:32:39.603Z,18.73
2019-01-26T06:35:08.575Z,22.37
2019-01-26T06:37:37.104Z,20.92
2019-01-26T06:40:06.386Z,19.87
2019-01-26T06:42:35.542Z,25.08
2019-01-26T06:45:04.128Z,23.80
2019-01-26T06:47:32.992Z,24.52
2019-01-26T06:50:01.825Z,27.20
2019-01-26T06:52:30.341Z,24.35
2019-01-26T06:54:59.282Z,23.95
2019-01-26T06:57:28.098Z,24.15
2019-01-26T06:59:57.598Z,26.20
2019-01-26T07:02:26.210Z,25.43
2019-01-26T07:05:00.302Z,25.88
2019-01-26T07:07:29.266Z,27.73
2019-01-26T07:09:58.094Z,23.67
2019-01-26T07:12:27.342Z,29.07
2019-01-26T07:14:56.234Z,24.00
2019-01-26T07:17:24.786Z,28.23
2019-01-26T07:19:53.285Z,24.02
2019-01-26T07:22:22.218Z,23.32
2019-01-26T07:24:51.022Z,24.02
2019-01-26T07:27:19.650Z,22.65
2019-01-26T07:29:48.854Z,22.62
2019-01-26T07:32:17.434Z,22.35
2019-01-26T07:34:46.310Z,22.45
2019-01-26T07:37:14.898Z,20.57
2019-01-26T07:39:43.828Z,21.00
2019-01-26T07:42:12.926Z,22.05
2019-01-26T07:44:41.458Z,21.65
2019-01-26T07:47:10.046Z,21.82
2019-01-26T07:49:39.192Z,21.30
2019-01-26T07:52:07.738Z,22.27
2019-01-26T07:54:36.368Z,22.55
2019-01-26T07:57:05.255Z,21.73
2019-01-26T07:59:34.103Z,19.80
2019-01-26T08:02:02.679Z,20.35
2019-01-26T08:04:31.403Z,21.12
2019-01-26T08:07:00.203Z,21.60
2019-01-26T08:09:28.727Z,21.70
2019-01-26T08:11:57.643Z,23.35
2019-01-26T08:14:26.530Z,20.52
2019-01-26T08:16:55.498Z,19.42
2019-01-26T08:19:24.362Z,19.30
2019-01-26T08:21:53.139Z,18.23
2019-01-26T08:24:21.994Z,17.23
2019-01-26T08:26:50.570Z,21.10
2019-01-26T08:29:19.144Z,18.57
2019-01-26T08:31:47.733Z,20.52
2019-01-26T08:34:16.307Z,21.33
2019-01-26T08:36:46.483Z,19.45
2019-01-26T08:39:15.266Z,21.97
2019-01-26T08:41:43.830Z,23.20
2019-01-26T08:44:12.674Z,20.23
2019-01-26T08:46:41.546Z,20.90
2019-01-26T08:49:10.427Z,19.50
2019-01-26T08:51:39.218Z,20.32
2019-01-26T08:54:07.746Z,20.00
2019-01-26T08:56:36.738Z,20.82
2019-01-26T08:59:05.398Z,18.98
2019-01-26T09:01:34.098Z,23.38
2019-01-26T09:04:25.266Z,22.02
2019-01-26T09:06:57.819Z,23.07
2019-01-26T09:09:26.643Z,19.40
2019-01-26T09:11:55.878Z,22.07
2019-01-26T09:14:24.543Z,19.60
2019-01-26T09:16:53.050Z,18.77
2019-01-26T09:19:23.028Z,15.05
2019-01-26T09:21:51.886Z,15.03
2019-01-26T09:24:20.859Z,12.63
2019-01-26T09:26:50.470Z,13.68
2019-01-26T09:29:19.108Z,12.18
2019-01-26T09:31:48.276Z,12.28
2019-01-26T09:34:17.150Z,11.20
2019-01-26T09:36:50.002Z,12.60
2019-01-26T09:39:18.518Z,9.55
2019-01-26T09:41:47.084Z,13.72
2019-01-26T09:44:15.679Z,12.05
2019-01-26T09:46:44.302Z,14.68
2019-01-26T09:49:13.196Z,12.45
2019-01-26T09:51:41.728Z,13.00
2019-01-26T09:54:10.671Z,12.80
2019-01-26T09:56:39.194Z,14.20
2019-01-26T09:59:07.799Z,9.23
2019-01-26T10:01:36.379Z,10.13
2019-01-26T10:04:04.987Z,11.40
2019-01-26T10:06:33.546Z,12.35
2019-01-26T10:09:02.130Z,12.88
2019-01-26T10:11:30.703Z,11.60
2019-01-26T10:13:59.294Z,9.43
2019-01-26T10:16:27.874Z,9.93
2019-01-26T10:18:56.850Z,14.68
2019-01-26T10:21:25.346Z,10.38
2019-01-26T10:23:53.934Z,13.18
2019-01-26T10:26:22.514Z,11.97
2019-01-26T10:28:51.144Z,12.98
2019-01-26T10:31:19.750Z,11.83
2019-01-26T10:33:48.271Z,12.65
2019-01-26T10:36:38.958Z,13.32
2019-01-26T10:39:16.037Z,11.50
2019-01-26T10:42:11.112Z,14.15
2019-01-26T10:44:39.651Z,13.55
2019-01-26T10:47:08.487Z,15.68
2019-01-26T10:49:37.022Z,14.45
2019-01-26T10:52:05.881Z,11.95
2019-01-26T10:54:34.513Z,13.53
2019-01-26T10:57:03.457Z,13.85
2019-01-26T10:59:32.378Z,12.78
2019-01-26T11:02:01.319Z,11.68
2019-01-26T11:04:30.055Z,11.85
2019-01-26T11:06:58.895Z,13.70
2019-01-26T11:09:27.427Z,13.03
2019-01-26T11:11:55.982Z,14.78
2019-01-26T11:14:25.267Z,13.72
2019-01-26T11:16:54.089Z,12.93
2019-01-26T11:19:23.039Z,16.30
2019-01-26T11:21:52.145Z,16.52
2019-01-26T11:24:20.693Z,16.07
2019-01-26T11:26:49.641Z,18.77
2019-01-26T11:29:18.347Z,13.80
2019-01-26T11:31:47.298Z,16.10
2019-01-26T11:34:15.835Z,14.10
2019-01-26T11:36:44.446Z,16.90
2019-01-26T11:39:13.014Z,14.75
2019-01-26T11:41:41.976Z,13.70
2019-01-26T11:44:10.954Z,13.65
2019-01-26T11:47:08.399Z,14.15
2019-01-26T11:49:39.126Z,15.83
2019-01-26T11:52:09.004Z,16.23
2019-01-26T11:55:02.712Z,15.98
2019-01-26T11:57:34.190Z,13.28
2019-01-26T12:00:16.963Z,14.25
2019-01-26T12:03:07.675Z,14.28
2019-01-26T12:05:43.599Z,15.43
2019-01-26T12:08:12.157Z,11.45
2019-01-26T12:10:40.914Z,12.13
2019-01-26T12:13:09.423Z,12.50
2019-01-26T12:15:38.487Z,12.80
2019-01-26T12:18:07.279Z,11.57
2019-01-26T12:20:35.815Z,12.65
2019-01-26T12:23:04.330Z,11.65
2019-01-26T12:25:32.850Z,12.03
2019-01-26T12:28:01.377Z,11.70
2019-01-26T12:30:29.878Z,12.15
2019-01-26T12:32:58.675Z,14.45
2019-01-26T12:35:27.176Z,13.13
2019-01-26T12:37:55.682Z,13.93
2019-01-26T12:40:24.202Z,12.05
2019-01-26T12:42:52.718Z,8.58
2019-01-26T12:45:21.251Z,10.53
2019-01-26T12:47:50.078Z,10.43
2019-01-26T12:50:19.007Z,9.73
2019-01-26T12:52:47.534Z,9.13
2019-01-26T12:55:16.070Z,6.78
2019-01-26T12:57:44.566Z,9.95
2019-01-26T13:00:16.391Z,8.18
2019-01-26T13:02:45.473Z,8.78
2019-01-26T13:05:14.390Z,6.78
2019-01-26T13:07:42.919Z,8.20
2019-01-26T13:10:15.631Z,7.28
2019-01-26T13:12:44.143Z,8.30
2019-01-26T13:15:15.403Z,6.67
2019-01-26T13:17:43.234Z,8.65
2019-01-26T13:20:13.361Z,6.60
2019-01-26T13:22:42.127Z,6.95
2019-01-26T13:25:11.793Z,7.78
2019-01-26T13:27:40.278Z,7.40
2019-01-26T13:30:12.519Z,8.38
2019-01-26T13:32:41.014Z,6.40
2019-01-26T13:35:09.867Z,9.03
2019-01-26T13:37:38.402Z,8.88
2019-01-26T13:40:10.379Z,12.53
2019-01-26T13:42:39.319Z,8.68
2019-01-26T13:45:09.552Z,8.40
2019-01-26T13:47:38.155Z,10.10
2019-01-26T13:50:07.530Z,9.53
2019-01-26T13:52:36.030Z,8.38
2019-01-26T13:55:05.450Z,8.95
2019-01-26T13:57:34.086Z,9.48
2019-01-26T14:00:03.071Z,9.15
2019-01-26T14:02:31.592Z,10.10
2019-01-26T14:05:00.202Z,9.75
2019-01-26T14:07:28.991Z,7.83
2019-01-26T14:09:57.742Z,12.98
2019-01-26T14:12:26.915Z,12.93
2019-01-26T14:14:55.462Z,12.00
2019-01-26T14:17:24.398Z,9.15
2019-01-26T14:19:53.211Z,8.93
2019-01-26T14:22:21.807Z,7.95
2019-01-26T14:24:50.394Z,8.05
2019-01-26T14:27:18.979Z,7.72
2019-01-26T14:29:47.566Z,8.43
2019-01-26T14:32:16.398Z,9.55
2019-01-26T14:34:45.599Z,9.45
2019-01-26T14:37:14.478Z,6.97
2019-01-26T14:39:43.042Z,9.35
2019-01-26T14:42:11.967Z,7.78
2019-01-26T14:44:40.858Z,8.23
2019-01-26T14:47:09.618Z,8.98
2019-01-26T14:49:38.590Z,7.90
2019-01-26T14:52:07.428Z,9.40
2019-01-26T14:54:35.920Z,7.78
2019-01-26T14:57:05.496Z,7.17
2019-01-26T14:59:33.982Z,6.97
2019-01-26T15:02:02.792Z,9.45
2019-01-26T15:04:31.597Z,9.53
2019-01-26T15:07:00.106Z,8.10
2019-01-26T15:09:28.907Z,8.45
2019-01-26T15:11:57.951Z,9.35
2019-01-26T15:14:26.737Z,7.85
2019-01-26T15:16:55.243Z,7.92
2019-01-26T15:19:23.745Z,8.58
2019-01-26T15:21:52.270Z,7.33
2019-01-26T15:24:20.767Z,7.42
2019-01-26T15:26:53.471Z,9.43
2019-01-26T15:29:21.978Z,7.12
2019-01-26T15:31:50.775Z,12.05
2019-01-26T15:34:19.275Z,7.65
2019-01-26T15:36:52.378Z,8.23
2019-01-26T15:39:20.887Z,8.15
2019-01-26T15:41:49.406Z,10.65
2019-01-26T15:44:17.919Z,7.42
2019-01-26T15:46:47.028Z,7.67
2019-01-26T15:49:15.526Z,9.38
2019-01-26T15:51:44.035Z,9.63
2019-01-26T15:54:12.876Z,11.00
2019-01-26T15:56:41.639Z,10.38
2019-01-26T15:59:10.411Z,7.87
2019-01-26T16:01:38.939Z,8.63
2019-01-26T16:04:07.455Z,8.10
2019-01-26T16:06:35.971Z,8.90
2019-01-26T16:09:08.047Z,8.63
2019-01-26T16:11:36.922Z,9.33
2019-01-26T16:14:05.533Z,7.20
2019-01-26T16:16:34.399Z,8.15
2019-01-26T16:19:03.361Z,6.90
2019-01-26T16:21:31.867Z,7.80
2019-01-26T16:24:00.654Z,6.70
2019-01-26T16:26:29.206Z,8.25
2019-01-26T16:28:57.706Z,7.15
2019-01-26T16:31:26.208Z,8.73
2019-01-26T16:33:54.714Z,8.90
2019-01-26T16:36:23.215Z,10.72
2019-01-26T16:38:51.994Z,7.58
2019-01-26T16:41:20.775Z,8.50
2019-01-26T16:43:49.543Z,11.12
2019-01-26T16:46:18.491Z,8.48
2019-01-26T16:48:47.323Z,8.40
2019-01-26T16:51:15.823Z,8.28
2019-01-26T16:53:44.342Z,7.28
2019-01-26T16:56:12.846Z,8.55
2019-01-26T16:58:41.801Z,10.43
2019-01-26T17:01:10.295Z,11.40
2019-01-26T17:03:38.806Z,7.58
2019-01-26T17:06:07.307Z,7.90
2019-01-26T17:08:36.437Z,8.30
2019-01-26T17:11:04.948Z,8.45
2019-01-26T17:13:33.483Z,9.73
2019-01-26T17:16:01.986Z,9.80
2019-01-26T17:18:30.514Z,10.40
2019-01-26T17:20:59.280Z,9.23
2019-01-26T17:23:28.070Z,9.20
2019-01-26T17:25:56.574Z,13.88
2019-01-26T17:28:25.171Z,10.70
2019-01-26T17:30:53.735Z,10.03
2019-01-26T17:33:22.579Z,8.95
2019-01-26T17:35:51.110Z,9.53
2019-01-26T17:38:19.959Z,10.30
2019-01-26T17:40:54.308Z,13.38
2019-01-26T17:43:18.819Z,9.80
2019-01-26T17:45:47.390Z,9.18
2019-01-26T17:48:15.988Z,10.48
2019-01-26T17:50:44.559Z,11.35
2019-01-26T17:53:13.722Z,11.88
2019-01-26T17:55:42.862Z,10.80
2019-01-26T17:58:11.413Z,9.28
2019-01-26T18:00:59.029Z,14.40
2019-01-26T18:03:27.606Z,9.68
2019-01-26T18:05:56.136Z,11.22
2019-01-26T18:08:24.909Z,10.72
2019-01-26T18:10:53.406Z,12.23
2019-01-26T18:13:21.918Z,9.80
2019-01-26T18:15:50.818Z,10.00
2019-01-26T18:18:19.338Z,9.98
2019-01-26T18:20:49.398Z,11.22
2019-01-26T18:23:23.574Z,8.90
2019-01-26T18:25:52.350Z,9.85
2019-01-26T18:28:20.887Z,8.33
2019-01-26T18:30:49.767Z,9.48
2019-01-26T18:33:18.357Z,9.63
2019-01-26T18:35:47.322Z,9.15
2019-01-26T18:38:15.918Z,8.13
2019-01-26T18:40:44.519Z,8.95
2019-01-26T18:43:13.443Z,7.65
2019-01-26T18:45:42.262Z,7.50
2019-01-26T18:48:10.774Z,8.70
2019-01-26T18:50:41.575Z,8.95
2019-01-26T18:53:10.367Z,6.87
2019-01-26T18:55:38.870Z,8.48
2019-01-26T18:58:07.374Z,9.75
2019-01-26T19:00:38.579Z,6.30
2019-01-26T19:03:23.008Z,7.75
2019-01-26T19:05:53.454Z,7.53
2019-01-26T19:08:22.620Z,6.67
2019-01-26T19:10:51.455Z,6.40
2019-01-26T19:13:20.233Z,6.75
2019-01-26T19:15:48.738Z,7.60
2019-01-26T19:18:17.238Z,8.40
2019-01-26T19:20:45.762Z,7.15
2019-01-26T19:23:16.283Z,6.83
2019-01-26T19:25:45.387Z,6.72
2019-01-26T19:28:14.167Z,8.08
2019-01-26T19:30:42.729Z,7.00
2019-01-26T19:33:11.539Z,6.90
2019-01-26T19:35:40.130Z,7.40
2019-01-26T19:38:08.910Z,7.85
2019-01-26T19:40:37.703Z,8.03
2019-01-26T19:43:06.491Z,7.92
2019-01-26T19:45:35.017Z,7.92
2019-01-26T19:48:03.539Z,8.55
2019-01-26T19:50:32.064Z,7.28
2019-01-26T19:53:00.883Z,7.65
2019-01-26T19:55:29.691Z,7.58
2019-01-26T19:57:58.226Z,6.85
2019-01-26T20:00:26.762Z,8.88
2019-01-26T20:02:55.351Z,7.95
2019-01-26T20:05:24.159Z,6.72
2019-01-26T20:07:52.675Z,5.92
2019-01-26T20:10:21.541Z,8.45
2019-01-26T20:12:50.332Z,6.05
2019-01-26T20:15:19.863Z,6.80
2019-01-26T20:17:49.651Z,7.10
2019-01-26T20:20:23.881Z,5.58
2019-01-26T20:22:52.418Z,6.97
2019-01-26T20:25:21.274Z,6.75
2019-01-26T20:27:49.805Z,6.35
2019-01-26T20:30:21.458Z,6.08
2019-01-26T20:32:50.354Z,6.97
2019-01-26T20:35:18.870Z,7.15
2019-01-26T20:37:47.406Z,5.67
2019-01-26T20:40:16.450Z,7.35
2019-01-26T20:42:44.978Z,8.33
2019-01-26T20:45:16.139Z,7.42
2019-01-26T20:47:44.742Z,5.87
2019-01-26T20:50:13.426Z,6.65
2019-01-26T20:52:41.954Z,7.30
2019-01-26T20:55:10.815Z,6.30
2019-01-26T20:57:39.981Z,6.92
2019-01-26T21:00:28.671Z,8.08
2019-01-26T21:02:57.206Z,9.95
2019-01-26T21:05:25.786Z,6.37
2019-01-26T21:07:54.371Z,7.58
2019-01-26T21:10:25.054Z,6.72
2019-01-26T21:12:53.886Z,6.70
2019-01-26T21:15:22.594Z,7.58
2019-01-26T21:17:51.383Z,7.28
2019-01-26T21:20:20.619Z,7.00
2019-01-26T21:22:49.486Z,6.60
2019-01-26T21:25:18.258Z,6.72
2019-01-26T21:27:46.802Z,6.55
2019-01-26T21:30:18.019Z,7.03
2019-01-26T21:32:46.559Z,7.58
2019-01-26T21:35:15.122Z,5.58
2019-01-26T21:37:43.655Z,5.72
2019-01-26T21:40:15.219Z,5.97
2019-01-26T21:42:44.190Z,5.80
2019-01-26T21:45:13.175Z,6.00
2019-01-26T21:47:41.702Z,7.58
2019-01-26T21:50:13.246Z,7.67
2019-01-26T21:52:41.882Z,6.15
2019-01-26T21:55:10.430Z,5.47
2019-01-26T21:57:39.043Z,5.60
2019-01-26T22:00:11.470Z,5.55
2019-01-26T22:02:40.102Z,5.55
2019-01-26T22:05:09.355Z,6.33
2019-01-26T22:07:37.886Z,7.33
2019-01-26T22:10:12.020Z,7.72
2019-01-26T22:12:40.711Z,7.37
2019-01-26T22:15:10.702Z,6.97
2019-01-26T22:17:40.644Z,6.95
2019-01-26T22:20:12.111Z,6.92
2019-01-26T22:22:40.772Z,9.45
2019-01-26T22:25:11.528Z,7.22
2019-01-26T22:27:40.403Z,6.33
2019-01-26T22:30:12.912Z,7.05
2019-01-26T22:32:41.548Z,9.75
2019-01-26T22:35:10.455Z,8.78
2019-01-26T22:37:39.034Z,8.03
2019-01-26T22:40:11.316Z,7.58
2019-01-26T22:42:40.104Z,9.03
2019-01-26T22:45:09.311Z,7.35
2019-01-26T22:47:38.191Z,7.87
2019-01-26T22:50:08.446Z,8.08
2019-01-26T22:52:37.385Z,10.23
2019-01-26T22:55:07.758Z,8.45
2019-01-26T22:57:36.758Z,9.88
2019-01-26T23:00:11.011Z,6.55
2019-01-26T23:02:39.586Z,8.45
2019-01-26T23:05:22.274Z,8.68
2019-01-26T23:08:01.779Z,7.62
2019-01-26T23:10:43.570Z,7.20
2019-01-26T23:13:22.326Z,8.25
2019-01-26T23:16:41.702Z,7.33
2019-01-26T23:19:36.298Z,7.70
2019-01-26T23:22:55.435Z,7.35
2019-01-26T23:26:20.107Z,9.65
2019-01-26T23:29:23.772Z,13.68
2019-01-26T23:31:53.210Z,11.60
2019-01-26T23:34:22.446Z,8.03
2019-01-26T23:36:50.999Z,10.75
2019-01-26T23:39:19.587Z,10.28
2019-01-26T23:41:48.498Z,8.95
2019-01-26T23:44:17.060Z,8.70
2019-01-26T23:46:45.627Z,8.23
2019-01-26T23:49:14.229Z,9.33
2019-01-26T23:51:42.751Z,9.45
2019-01-26T23:54:11.874Z,8.65
2019-01-26T23:56:40.719Z,11.03
2019-01-26T23:59:09.607Z,8.65
